createdAt,value
2022-10-17T00:00:48.695Z,7.45
2022-10-17T00:03:16.539Z,6.90
2022-10-17T00:05:47.001Z,2.67
2022-10-17T00:08:17.003Z,6.35
2022-10-17T00:10:45.432Z,3.42
2022-10-17T00:13:12.979Z,5.55
2022-10-17T00:15:44.897Z,7.60
2022-10-17T00:18:12.423Z,5.60
2022-10-17T00:20:42.085Z,3.83
2022-10-17T00:23:09.599Z,2.55
2022-10-17T00:25:37.167Z,2.90
2022-10-17T00:28:04.805Z,3.35
2022-10-17T00:30:32.932Z,5.63
2022-10-17T00:33:00.563Z,3.63
2022-10-17T00:35:28.080Z,4.93
2022-10-17T00:37:55.580Z,3.63
2022-10-17T00:40:23.059Z,4.70
2022-10-17T00:42:53.043Z,6.22
2022-10-17T00:45:27.101Z,2.97
2022-10-17T00:48:04.740Z,1.63
2022-10-17T00:50:32.994Z,5.45
2022-10-17T00:53:05.131Z,6.97
2022-10-17T00:55:37.031Z,6.93
2022-10-17T00:58:06.606Z,8.38
2022-10-17T01:00:34.696Z,8.32
2022-10-17T01:03:02.159Z,5.18
2022-10-17T01:05:30.143Z,5.93
2022-10-17T01:07:57.791Z,4.95
2022-10-17T01:10:33.221Z,6.95
2022-10-17T01:13:00.661Z,18.65
2022-10-17T01:15:40.302Z,3.00
2022-10-17T01:18:14.146Z,5.22
2022-10-17T01:21:14.783Z,5.85
2022-10-17T01:24:19.884Z,6.80
2022-10-17T01:27:08.672Z,7.78
2022-10-17T01:30:01.919Z,7.53
2022-10-17T01:33:13.583Z,10.50
2022-10-17T01:36:06.004Z,11.75
2022-10-17T01:38:43.976Z,7.47
2022-10-17T01:41:38.069Z,7.20
2022-10-17T01:44:27.012Z,11.90
2022-10-17T01:47:01.390Z,10.75
2022-10-17T01:49:31.822Z,14.85
2022-10-17T01:52:08.824Z,10.20
2022-10-17T01:54:47.733Z,14.38
2022-10-17T01:57:29.614Z,11.95
2022-10-17T01:59:57.793Z,8.20
2022-10-17T02:02:26.940Z,12.23
2022-10-17T02:04:57.401Z,9.43
2022-10-17T02:07:25.250Z,14.88
2022-10-17T02:09:53.622Z,19.15
2022-10-17T02:12:42.333Z,17.05
2022-10-17T02:15:29.146Z,10.82
2022-10-17T02:18:21.821Z,9.55
2022-10-17T02:21:00.439Z,15.25
2022-10-17T02:23:55.788Z,14.02
2022-10-17T02:26:32.396Z,12.57
2022-10-17T02:29:19.660Z,10.48
2022-10-17T02:31:56.132Z,16.40
2022-10-17T02:34:31.972Z,9.35
2022-10-17T02:37:01.965Z,12.98
2022-10-17T02:39:31.312Z,15.52
2022-10-17T02:42:02.597Z,16.60
2022-10-17T02:44:32.441Z,16.00
2022-10-17T02:47:17.586Z,20.20
2022-10-17T02:49:51.521Z,22.50
2022-10-17T02:53:00.527Z,10.77
2022-10-17T02:55:39.552Z,21.67
2022-10-17T02:58:13.523Z,18.30
2022-10-17T03:00:42.277Z,12.75
2022-10-17T03:03:41.791Z,13.45
2022-10-17T03:06:09.416Z,12.82
2022-10-17T03:11:09.425Z,18.92
2022-10-17T03:13:39.727Z,11.70
2022-10-17T03:16:08.091Z,8.68
2022-10-17T03:18:36.055Z,10.25
2022-10-17T03:21:04.469Z,15.95
2022-10-17T03:23:32.185Z,19.48
2022-10-17T03:26:07.879Z,13.43
2022-10-17T03:28:36.280Z,18.58
2022-10-17T03:31:08.860Z,17.33
2022-10-17T03:33:37.967Z,23.38
2022-10-17T03:36:10.678Z,26.02
2022-10-17T03:38:39.683Z,24.10
2022-10-17T03:41:08.052Z,25.17
2022-10-17T03:43:37.689Z,25.33
2022-10-17T03:46:05.891Z,36.17
2022-10-17T03:48:34.398Z,35.50
2022-10-17T03:51:04.907Z,28.92
2022-10-17T03:53:35.280Z,30.60
2022-10-17T03:56:14.598Z,19.52
2022-10-17T03:58:42.333Z,24.05
2022-10-17T04:01:13.786Z,32.75
2022-10-17T04:03:42.043Z,19.25
2022-10-17T04:06:12.393Z,23.17
2022-10-17T04:08:42.805Z,23.20
2022-10-17T04:11:19.371Z,39.35
2022-10-17T04:13:48.352Z,21.92
2022-10-17T04:16:17.214Z,18.35
2022-10-17T04:19:07.563Z,15.23
2022-10-17T04:21:40.900Z,25.13
2022-10-17T04:24:11.853Z,21.77
2022-10-17T04:26:51.067Z,18.40
2022-10-17T04:29:19.574Z,21.63
2022-10-17T04:31:51.740Z,18.02
2022-10-17T04:34:39.436Z,22.75
2022-10-17T04:37:07.119Z,79.40
2022-10-17T04:39:35.184Z,14.48
2022-10-17T04:42:04.069Z,11.38
2022-10-17T04:44:33.537Z,5.90
2022-10-17T04:47:01.605Z,8.93
2022-10-17T04:49:29.137Z,7.82
2022-10-17T04:52:02.647Z,5.85
2022-10-17T04:54:37.116Z,3.55
2022-10-17T04:57:09.074Z,4.28
2022-10-17T04:59:36.772Z,3.53
2022-10-17T05:02:22.327Z,2.67
2022-10-17T05:04:50.744Z,10.15
2022-10-17T05:07:18.246Z,13.30
2022-10-17T05:10:08.937Z,22.60
2022-10-17T05:12:36.607Z,20.55
2022-10-17T05:15:06.036Z,21.60
2022-10-17T05:17:33.994Z,18.02
2022-10-17T05:20:01.423Z,29.52
2022-10-17T05:22:31.686Z,22.08
2022-10-17T05:25:00.099Z,15.45
2022-10-17T05:27:27.531Z,18.08
2022-10-17T05:29:55.387Z,24.75
2022-10-17T05:32:29.873Z,24.10
2022-10-17T05:34:57.497Z,24.40
2022-10-17T05:37:26.261Z,17.67
2022-10-17T05:39:56.539Z,21.20
2022-10-17T05:42:24.896Z,20.42
2022-10-17T05:44:52.380Z,28.08
2022-10-17T05:47:20.579Z,21.70
2022-10-17T05:49:51.400Z,16.30
2022-10-17T05:55:07.805Z,17.65
2022-10-17T05:57:35.788Z,23.30
2022-10-17T06:00:07.016Z,10.70
2022-10-17T06:02:46.111Z,14.27
2022-10-17T06:05:16.109Z,7.00
2022-10-17T06:07:44.213Z,8.65
2022-10-17T06:10:15.087Z,10.32
2022-10-17T06:12:46.387Z,8.40
2022-10-17T06:15:15.085Z,11.43
2022-10-17T06:17:45.772Z,8.05
2022-10-17T06:20:13.241Z,12.38
2022-10-17T06:22:40.694Z,6.53
2022-10-17T06:25:14.915Z,4.80
2022-10-17T06:27:42.812Z,12.98
2022-10-17T06:30:11.466Z,9.77
2022-10-17T06:32:38.959Z,8.75
2022-10-17T06:35:07.093Z,5.80
2022-10-17T06:37:36.866Z,7.25
2022-10-17T06:40:10.517Z,8.50
2022-10-17T06:42:39.389Z,4.60
2022-10-17T06:47:57.656Z,5.05
2022-10-17T06:50:36.286Z,5.32
2022-10-17T06:53:22.196Z,9.50
2022-10-17T06:56:09.475Z,10.82
2022-10-17T06:58:55.506Z,7.95
2022-10-17T07:01:26.764Z,6.90
2022-10-17T07:03:57.895Z,3.40
2022-10-17T07:06:25.554Z,6.43
2022-10-17T07:08:58.462Z,6.50
2022-10-17T07:11:25.996Z,3.22
2022-10-17T07:13:53.456Z,3.90
2022-10-17T07:16:22.302Z,4.65
2022-10-17T07:18:57.049Z,3.35
2022-10-17T07:21:25.624Z,5.53
2022-10-17T07:23:53.117Z,7.35
2022-10-17T07:26:21.322Z,6.72
2022-10-17T07:28:55.279Z,4.30
2022-10-17T07:31:34.810Z,5.25
2022-10-17T07:34:02.959Z,5.30
2022-10-17T07:36:30.915Z,7.70
2022-10-17T07:39:00.233Z,2.42
2022-10-17T07:41:28.144Z,2.20
2022-10-17T07:43:56.208Z,3.88
2022-10-17T07:46:30.062Z,3.40
2022-10-17T07:48:57.624Z,6.70
2022-10-17T07:51:25.212Z,3.85
2022-10-17T07:53:52.755Z,12.70
2022-10-17T07:56:21.527Z,7.90
2022-10-17T07:58:49.111Z,4.20
2022-10-17T08:01:17.611Z,7.72
2022-10-17T08:03:46.704Z,5.18
2022-10-17T08:06:14.991Z,2.42
2022-10-17T08:08:42.812Z,6.43
2022-10-17T08:11:12.180Z,1.80
2022-10-17T08:13:40.677Z,5.43
2022-10-17T08:16:11.265Z,4.28
2022-10-17T08:18:40.417Z,7.57
2022-10-17T08:21:08.659Z,12.23
2022-10-17T08:23:37.526Z,9.20
2022-10-17T08:26:10.475Z,5.93
2022-10-17T08:28:39.669Z,5.80
2022-10-17T08:31:21.105Z,29.10
2022-10-17T08:33:50.009Z,7.68
2022-10-17T08:36:20.852Z,9.38
2022-10-17T08:38:52.614Z,6.97
2022-10-17T08:41:29.554Z,11.65
2022-10-17T08:44:19.339Z,5.80
2022-10-17T08:46:50.181Z,15.45
2022-10-17T08:49:47.050Z,7.78
2022-10-17T08:52:26.968Z,8.18
2022-10-17T08:54:54.639Z,8.68
2022-10-17T08:57:22.091Z,13.45
2022-10-17T08:59:52.412Z,13.25
2022-10-17T09:02:33.172Z,19.05
2022-10-17T09:05:26.744Z,16.35
2022-10-17T09:08:06.332Z,11.13
2022-10-17T09:10:42.715Z,17.75
2022-10-17T09:13:23.269Z,16.27
2022-10-17T09:16:11.668Z,19.08
2022-10-17T09:18:47.000Z,18.50
2022-10-17T09:21:26.649Z,23.25
2022-10-17T09:24:09.471Z,17.33
2022-10-17T09:26:39.567Z,19.95
2022-10-17T09:29:18.712Z,21.75
2022-10-17T09:32:02.561Z,16.42
2022-10-17T09:34:32.787Z,17.63
2022-10-17T09:37:02.026Z,19.25
2022-10-17T09:39:32.109Z,22.63
2022-10-17T09:42:01.685Z,25.23
2022-10-17T09:44:50.019Z,18.02
2022-10-17T09:47:31.851Z,23.08
2022-10-17T09:49:59.307Z,19.95
2022-10-17T09:52:41.057Z,23.45
2022-10-17T09:55:32.813Z,16.70
2022-10-17T09:58:02.699Z,18.13
2022-10-17T10:00:34.142Z,18.10
2022-10-17T10:03:21.068Z,19.02
2022-10-17T10:06:05.335Z,29.33
2022-10-17T10:08:38.084Z,17.60
2022-10-17T10:11:13.403Z,20.80
2022-10-17T10:13:42.712Z,24.45
2022-10-17T10:16:33.490Z,21.10
2022-10-17T10:19:03.635Z,23.75
2022-10-17T10:21:33.957Z,22.92
2022-10-17T10:24:03.667Z,21.85
2022-10-17T10:26:41.154Z,23.55
2022-10-17T10:29:36.716Z,15.80
2022-10-17T10:32:22.409Z,21.42
2022-10-17T10:35:18.986Z,15.40
2022-10-17T10:37:50.843Z,13.32
2022-10-17T10:40:44.534Z,18.95
2022-10-17T10:43:29.884Z,19.88
2022-10-17T10:45:57.801Z,19.92
2022-10-17T10:48:35.082Z,19.45
2022-10-17T10:51:14.740Z,17.92
2022-10-17T10:54:08.926Z,15.25
2022-10-17T10:56:44.494Z,14.98
2022-10-17T10:59:20.337Z,19.48
2022-10-17T11:02:03.855Z,14.23
2022-10-17T11:04:57.970Z,23.15
2022-10-17T11:07:43.497Z,18.05
2022-10-17T11:10:44.691Z,12.05
2022-10-17T11:13:20.581Z,16.77
2022-10-17T11:16:02.214Z,19.33
2022-10-17T11:18:43.061Z,19.38
2022-10-17T11:21:17.022Z,13.82
2022-10-17T11:23:51.471Z,12.27
2022-10-17T11:26:27.013Z,19.48
2022-10-17T11:28:56.236Z,11.27
2022-10-17T11:31:30.680Z,13.48
2022-10-17T11:33:58.317Z,12.43
2022-10-17T11:36:42.736Z,11.43
2022-10-17T11:39:51.913Z,8.70
2022-10-17T11:42:25.982Z,8.38
2022-10-17T11:45:12.266Z,12.15
2022-10-17T11:47:54.341Z,12.65
2022-10-17T11:53:25.204Z,9.68
2022-10-17T11:55:54.523Z,12.10
2022-10-17T11:58:31.553Z,11.45
2022-10-17T12:01:36.009Z,7.88
2022-10-17T12:04:41.988Z,9.55
2022-10-17T12:07:28.596Z,4.65
2022-10-17T12:10:21.836Z,6.15
2022-10-17T12:12:49.555Z,5.85
2022-10-17T12:15:19.928Z,5.47
2022-10-17T12:17:54.848Z,7.63
2022-10-17T12:20:25.584Z,8.65
2022-10-17T12:23:10.886Z,5.13
2022-10-17T12:25:51.146Z,5.53
2022-10-17T12:28:21.657Z,9.73
2022-10-17T12:30:53.741Z,13.07
2022-10-17T12:33:34.820Z,9.20
2022-10-17T12:36:17.330Z,9.85
2022-10-17T12:39:14.554Z,6.22
2022-10-17T12:41:42.562Z,7.05
2022-10-17T12:44:21.594Z,5.25
2022-10-17T12:46:51.265Z,7.68
2022-10-17T12:49:36.808Z,6.68
2022-10-17T12:52:35.197Z,5.68
2022-10-17T12:55:13.182Z,7.05
2022-10-17T12:57:53.079Z,8.27
2022-10-17T13:00:22.821Z,5.85
2022-10-17T13:02:54.473Z,6.28
2022-10-17T13:05:31.655Z,5.93
2022-10-17T13:08:02.290Z,10.95
2022-10-17T13:10:43.231Z,8.23
2022-10-17T13:13:35.572Z,6.15
2022-10-17T13:16:03.402Z,10.98
2022-10-17T13:18:31.438Z,12.48
2022-10-17T13:21:16.533Z,5.20
2022-10-17T13:23:44.269Z,5.80
2022-10-17T13:26:23.336Z,8.02
2022-10-17T13:29:14.044Z,8.68
2022-10-17T13:31:44.089Z,5.80
2022-10-17T13:34:23.866Z,5.95
2022-10-17T13:36:55.181Z,6.22
2022-10-17T13:39:44.778Z,7.18
2022-10-17T13:42:29.716Z,5.75
2022-10-17T13:44:58.873Z,5.38
2022-10-17T13:47:29.687Z,9.27
2022-10-17T13:49:58.823Z,5.95
2022-10-17T13:52:29.483Z,7.10
2022-10-17T13:55:20.187Z,5.72
2022-10-17T13:57:48.347Z,9.52
2022-10-17T14:00:20.663Z,4.40
2022-10-17T14:02:49.230Z,4.28
2022-10-17T14:05:21.803Z,4.22
2022-10-17T14:08:13.492Z,4.93
2022-10-17T14:10:44.587Z,7.55
2022-10-17T14:13:27.339Z,6.85
2022-10-17T14:15:59.063Z,3.90
2022-10-17T14:18:36.757Z,4.10
2022-10-17T14:24:13.290Z,4.22
2022-10-17T14:26:51.668Z,5.43
2022-10-17T14:29:22.382Z,8.95
2022-10-17T14:31:54.511Z,12.80
2022-10-17T14:34:31.928Z,6.50
2022-10-17T14:36:59.964Z,5.88
2022-10-17T14:39:28.302Z,6.47
2022-10-17T14:41:57.210Z,4.40
2022-10-17T14:44:29.581Z,5.15
2022-10-17T14:47:06.035Z,4.65
2022-10-17T14:49:41.298Z,4.85
2022-10-17T14:52:18.641Z,3.83
2022-10-17T14:54:49.603Z,4.95
2022-10-17T14:57:29.519Z,4.72
2022-10-17T14:59:57.398Z,4.32
2022-10-17T15:02:30.970Z,7.30
2022-10-17T15:04:58.727Z,6.25
2022-10-17T15:07:26.138Z,4.03
2022-10-17T15:09:54.171Z,3.70
2022-10-17T15:12:25.241Z,8.82
2022-10-17T15:14:53.960Z,4.63
2022-10-17T15:17:23.812Z,6.95
2022-10-17T15:19:51.380Z,5.50
2022-10-17T15:22:18.803Z,5.25
2022-10-17T15:24:46.991Z,4.82
2022-10-17T15:27:20.576Z,4.68
2022-10-17T15:29:49.949Z,5.38
2022-10-17T15:32:17.559Z,3.88
2022-10-17T15:34:45.121Z,4.18
2022-10-17T15:37:20.914Z,2.88
2022-10-17T15:39:53.453Z,3.63
2022-10-17T15:42:28.781Z,3.78
2022-10-17T15:44:56.700Z,4.28
2022-10-17T15:47:34.922Z,3.38
2022-10-17T15:50:03.191Z,2.80
2022-10-17T15:52:30.684Z,3.92
2022-10-17T15:55:00.877Z,2.58
2022-10-17T15:57:36.204Z,3.97
2022-10-17T16:00:06.802Z,3.30
2022-10-17T16:02:36.768Z,2.35
2022-10-17T16:05:17.226Z,3.22
2022-10-17T16:07:48.450Z,2.80
2022-10-17T16:10:16.836Z,2.45
2022-10-17T16:12:44.802Z,1.35
2022-10-17T16:15:13.716Z,2.75
2022-10-17T16:17:41.258Z,3.40
2022-10-17T16:20:09.103Z,3.25
2022-10-17T16:22:43.242Z,3.30
2022-10-17T16:25:24.263Z,1.95
2022-10-17T16:27:54.162Z,2.03
2022-10-17T16:30:23.788Z,2.60
2022-10-17T16:32:52.029Z,3.75
2022-10-17T16:35:25.235Z,2.67
2022-10-17T16:37:53.193Z,3.20
2022-10-17T16:40:20.783Z,3.00
2022-10-17T16:42:48.394Z,6.82
2022-10-17T16:45:19.066Z,2.75
2022-10-17T16:47:47.692Z,3.53
2022-10-17T16:50:15.675Z,3.45
2022-10-17T16:52:43.133Z,1.77
2022-10-17T16:55:10.763Z,3.78
2022-10-17T16:57:38.574Z,3.88
2022-10-17T17:00:08.510Z,4.60
2022-10-17T17:02:35.965Z,5.30
2022-10-17T17:05:03.635Z,3.45
2022-10-17T17:07:31.417Z,1.20
2022-10-17T17:09:59.017Z,2.65
2022-10-17T17:12:26.481Z,1.33
2022-10-17T17:14:53.973Z,4.18
2022-10-17T17:17:37.218Z,4.20
2022-10-17T17:20:09.345Z,3.15
2022-10-17T17:22:36.800Z,1.27
2022-10-17T17:25:04.603Z,2.67
2022-10-17T17:27:32.389Z,2.08
2022-10-17T17:30:00.303Z,2.35
2022-10-17T17:32:27.746Z,1.83
2022-10-17T17:34:55.230Z,3.17
2022-10-17T17:37:22.699Z,2.17
2022-10-17T17:39:52.950Z,2.63
2022-10-17T17:42:23.709Z,2.13
2022-10-17T17:44:52.205Z,3.83
2022-10-17T17:47:19.753Z,2.58
2022-10-17T17:49:47.368Z,2.05
2022-10-17T17:52:15.801Z,3.90
2022-10-17T17:54:44.704Z,2.28
2022-10-17T17:57:12.559Z,2.80
2022-10-17T17:59:41.464Z,3.08
2022-10-17T18:02:10.713Z,2.85
2022-10-17T18:04:38.306Z,1.83
2022-10-17T18:07:05.662Z,1.55
2022-10-17T18:09:33.192Z,2.67
2022-10-17T18:12:00.678Z,2.47
2022-10-17T18:14:28.240Z,3.05
2022-10-17T18:16:55.657Z,1.67
2022-10-17T18:19:23.866Z,2.70
2022-10-17T18:21:51.360Z,3.08
2022-10-17T18:24:18.988Z,4.05
2022-10-17T18:26:46.450Z,2.25
2022-10-17T18:29:13.946Z,2.72
2022-10-17T18:31:41.504Z,4.07
2022-10-17T18:34:09.399Z,3.35
2022-10-17T18:36:37.746Z,4.25
2022-10-17T18:39:05.567Z,3.38
2022-10-17T18:41:33.653Z,3.58
2022-10-17T18:44:03.083Z,3.80
2022-10-17T18:46:40.213Z,2.42
2022-10-17T18:49:13.209Z,3.50
2022-10-17T18:51:40.947Z,2.35
2022-10-17T18:54:14.547Z,3.45
2022-10-17T18:56:42.193Z,6.10
2022-10-17T18:59:09.804Z,4.05
2022-10-17T19:01:37.398Z,4.93
2022-10-17T19:04:04.933Z,3.78
2022-10-17T19:06:32.789Z,2.97
2022-10-17T19:09:03.552Z,1.85
2022-10-17T19:11:32.046Z,0.90
2022-10-17T19:14:01.943Z,0.77
2022-10-17T19:16:35.737Z,0.60
2022-10-17T19:19:07.896Z,0.77
2022-10-17T19:21:35.710Z,1.25
2022-10-17T19:24:05.980Z,0.52
2022-10-17T19:26:35.529Z,2.78
2022-10-17T19:29:04.321Z,0.70
2022-10-17T19:31:33.257Z,0.60
2022-10-17T19:34:00.858Z,1.13
2022-10-17T19:36:33.615Z,2.10
2022-10-17T19:39:07.378Z,0.50
2022-10-17T19:41:36.434Z,0.50
2022-10-17T19:44:04.006Z,0.50
2022-10-17T19:46:33.783Z,1.75
2022-10-17T19:49:01.619Z,1.52
2022-10-17T19:51:29.886Z,0.77
2022-10-17T19:54:02.638Z,1.27
2022-10-17T19:56:32.411Z,0.45
2022-10-17T19:59:00.016Z,1.50
2022-10-17T20:01:29.863Z,1.25
2022-10-17T20:03:57.428Z,0.93
2022-10-17T20:06:25.390Z,0.50
2022-10-17T20:08:53.856Z,0.57
2022-10-17T20:11:24.268Z,0.30
2022-10-17T20:13:52.584Z,0.80
2022-10-17T20:16:26.454Z,0.55
2022-10-17T20:18:57.212Z,0.55
2022-10-17T20:21:31.642Z,0.55
2022-10-17T20:23:59.772Z,1.65
2022-10-17T20:26:43.609Z,1.98
2022-10-17T20:29:18.188Z,0.68
2022-10-17T20:31:46.888Z,0.95
2022-10-17T20:34:17.131Z,0.70
2022-10-17T20:36:44.983Z,1.30
2022-10-17T20:39:14.343Z,1.35
2022-10-17T20:41:42.372Z,0.52
2022-10-17T20:44:10.641Z,3.25
2022-10-17T20:46:44.692Z,1.95
2022-10-17T20:49:21.070Z,3.38
2022-10-17T20:51:48.525Z,1.17
2022-10-17T20:54:16.135Z,1.33
2022-10-17T20:56:43.785Z,0.85
2022-10-17T20:59:13.632Z,1.65
2022-10-17T21:01:41.126Z,1.67
2022-10-17T21:04:40.465Z,0.50
2022-10-17T21:06:57.868Z,1.95
2022-10-17T21:09:25.654Z,1.13
2022-10-17T21:11:55.684Z,1.75
2022-10-17T21:14:24.851Z,3.05
2022-10-17T21:16:52.639Z,3.10
2022-10-17T21:19:21.788Z,2.03
2022-10-17T21:21:49.496Z,1.70
2022-10-17T21:24:19.211Z,1.85
2022-10-17T21:26:50.100Z,2.15
2022-10-17T21:29:17.584Z,0.80
2022-10-17T21:31:45.409Z,2.25
2022-10-17T21:34:17.540Z,2.38
2022-10-17T21:36:45.257Z,2.30
2022-10-17T21:39:14.085Z,1.98
2022-10-17T21:41:42.623Z,0.60
2022-10-17T21:44:18.816Z,1.20
2022-10-17T21:46:47.295Z,1.95
2022-10-17T21:49:17.477Z,2.50
2022-10-17T21:51:45.413Z,1.30
2022-10-17T21:54:13.254Z,1.77
2022-10-17T21:56:41.434Z,2.40
2022-10-17T21:59:09.096Z,0.73
2022-10-17T22:01:39.456Z,3.55
2022-10-17T22:04:10.756Z,1.73
2022-10-17T22:06:41.294Z,2.05
2022-10-17T22:09:20.928Z,4.68
2022-10-17T22:11:51.196Z,1.42
2022-10-17T22:14:22.139Z,1.52
2022-10-17T22:16:50.311Z,1.35
2022-10-17T22:19:20.636Z,0.75
2022-10-17T22:21:48.653Z,2.53
2022-10-17T22:24:18.087Z,2.28
2022-10-17T22:26:45.849Z,1.40
2022-10-17T22:29:13.979Z,6.32
2022-10-17T22:31:41.683Z,1.08
2022-10-17T22:34:12.031Z,1.13
2022-10-17T22:36:39.551Z,2.35
2022-10-17T22:39:07.515Z,2.15
2022-10-17T22:41:34.966Z,1.42
2022-10-17T22:44:02.884Z,1.75
2022-10-17T22:46:30.389Z,1.45
2022-10-17T22:48:58.062Z,3.20
2022-10-17T22:51:25.528Z,1.27
2022-10-17T22:57:15.862Z,2.15
2022-10-17T22:59:43.329Z,3.90
2022-10-17T23:02:10.778Z,0.55
2022-10-17T23:04:38.328Z,1.55
2022-10-17T23:07:11.275Z,2.80
2022-10-17T23:09:39.063Z,1.17
2022-10-17T23:12:06.936Z,6.68
2022-10-17T23:14:37.583Z,2.25
2022-10-17T23:17:06.173Z,3.72
2022-10-17T23:19:34.552Z,4.10
2022-10-17T23:22:02.913Z,2.75
2022-10-17T23:24:30.781Z,2.10
2022-10-17T23:26:58.224Z,3.08
2022-10-17T23:29:26.167Z,0.82
2022-10-17T23:31:56.734Z,1.85
2022-10-17T23:34:24.301Z,4.18
2022-10-17T23:36:54.637Z,2.78
2022-10-17T23:39:22.277Z,1.38
2022-10-17T23:41:49.647Z,2.72
2022-10-17T23:44:17.073Z,0.40
2022-10-17T23:46:44.504Z,1.60
2022-10-17T23:49:12.021Z,1.85
2022-10-17T23:51:39.482Z,5.38
2022-10-17T23:54:07.002Z,0.98
2022-10-17T23:56:34.436Z,1.65
2022-10-17T23:59:02.222Z,1.92
